sensor_id;sensor_type;location;lat;lon;timestamp;P1;durP1;ratioP1;P2;durP2;ratioP2
5662;SDS011;2854;42.692;23.364;2022-12-29T00:01:26;8.17;;;6.70;;
5662;SDS011;2854;42.692;23.364;2022-12-29T00:03:51;17.27;;;10.60;;
5662;SDS011;2854;42.692;23.364;2022-12-29T00:06:17;14.70;;;8.73;;
5662;SDS011;2854;42.692;23.364;2022-12-29T00:08:42;13.30;;;8.37;;
5662;SDS011;2854;42.692;23.364;2022-12-29T00:11:15;22.50;;;10.00;;
5662;SDS011;2854;42.692;23.364;2022-12-29T00:13:40;20.87;;;9.43;;
5662;SDS011;2854;42.692;23.364;2022-12-29T00:16:42;18.10;;;7.73;;
5662;SDS011;2854;42.692;23.364;2022-12-29T00:19:08;11.57;;;6.90;;
5662;SDS011;2854;42.692;23.364;2022-12-29T00:21:53;15.60;;;8.27;;
5662;SDS011;2854;42.692;23.364;2022-12-29T00:24:37;11.23;;;7.13;;
5662;SDS011;2854;42.692;23.364;2022-12-29T00:27:21;21.20;;;9.57;;
5662;SDS011;2854;42.692;23.364;2022-12-29T00:30:08;12.40;;;7.50;;
5662;SDS011;2854;42.692;23.364;2022-12-29T00:32:53;12.20;;;8.00;;
5662;SDS011;2854;42.692;23.364;2022-12-29T00:35:53;15.30;;;8.30;;
5662;SDS011;2854;42.692;23.364;2022-12-29T00:38:20;17.57;;;8.57;;
5662;SDS011;2854;42.692;23.364;2022-12-29T00:41:04;8.50;;;6.50;;
5662;SDS011;2854;42.692;23.364;2022-12-29T00:43:48;12.97;;;6.67;;
5662;SDS011;2854;42.692;23.364;2022-12-29T00:46:35;11.97;;;7.83;;
5662;SDS011;2854;42.692;23.364;2022-12-29T00:49:00;10.87;;;7.27;;
5662;SDS011;2854;42.692;23.364;2022-12-29T00:51:44;8.87;;;6.83;;
5662;SDS011;2854;42.692;23.364;2022-12-29T00:54:10;11.00;;;6.67;;
5662;SDS011;2854;42.692;23.364;2022-12-29T00:56:35;11.87;;;6.93;;
5662;SDS011;2854;42.692;23.364;2022-12-29T00:59:04;12.77;;;6.80;;
5662;SDS011;2854;42.692;23.364;2022-12-29T01:01:30;9.73;;;6.10;;
5662;SDS011;2854;42.692;23.364;2022-12-29T01:03:55;11.87;;;7.80;;
5662;SDS011;2854;42.692;23.364;2022-12-29T01:06:22;13.63;;;7.57;;
5662;SDS011;2854;42.692;23.364;2022-12-29T01:08:47;10.07;;;6.47;;
5662;SDS011;2854;42.692;23.364;2022-12-29T01:11:32;11.37;;;7.27;;
5662;SDS011;2854;42.692;23.364;2022-12-29T01:13:57;11.57;;;7.13;;
5662;SDS011;2854;42.692;23.364;2022-12-29T01:16:23;8.77;;;5.57;;
5662;SDS011;2854;42.692;23.364;2022-12-29T01:18:48;11.80;;;7.53;;
5662;SDS011;2854;42.692;23.364;2022-12-29T01:21:13;7.70;;;5.30;;
5662;SDS011;2854;42.692;23.364;2022-12-29T01:23:38;5.80;;;5.10;;
5662;SDS011;2854;42.692;23.364;2022-12-29T01:26:13;9.17;;;6.43;;
5662;SDS011;2854;42.692;23.364;2022-12-29T01:28:39;11.30;;;7.97;;
5662;SDS011;2854;42.692;23.364;2022-12-29T01:31:06;15.83;;;5.80;;
5662;SDS011;2854;42.692;23.364;2022-12-29T01:33:32;8.60;;;6.27;;
5662;SDS011;2854;42.692;23.364;2022-12-29T01:36:04;11.37;;;7.27;;
5662;SDS011;2854;42.692;23.364;2022-12-29T01:38:30;9.40;;;6.20;;
5662;SDS011;2854;42.692;23.364;2022-12-29T01:40:55;9.47;;;6.33;;
5662;SDS011;2854;42.692;23.364;2022-12-29T01:43:21;11.80;;;7.17;;
5662;SDS011;2854;42.692;23.364;2022-12-29T01:45:50;10.73;;;7.17;;
5662;SDS011;2854;42.692;23.364;2022-12-29T01:48:16;11.07;;;5.83;;
5662;SDS011;2854;42.692;23.364;2022-12-29T01:50:43;11.80;;;5.63;;
5662;SDS011;2854;42.692;23.364;2022-12-29T01:53:15;15.30;;;6.30;;
5662;SDS011;2854;42.692;23.364;2022-12-29T01:55:46;11.37;;;6.20;;
5662;SDS011;2854;42.692;23.364;2022-12-29T01:58:13;9.17;;;5.20;;
5662;SDS011;2854;42.692;23.364;2022-12-29T02:00:39;7.00;;;5.33;;
5662;SDS011;2854;42.692;23.364;2022-12-29T02:03:04;9.07;;;5.20;;
5662;SDS011;2854;42.692;23.364;2022-12-29T02:08:15;12.80;;;7.37;;
5662;SDS011;2854;42.692;23.364;2022-12-29T02:10:40;9.63;;;6.50;;
5662;SDS011;2854;42.692;23.364;2022-12-29T02:13:06;7.87;;;5.77;;
5662;SDS011;2854;42.692;23.364;2022-12-29T02:21:18;6.57;;;4.87;;
5662;SDS011;2854;42.692;23.364;2022-12-29T02:31:31;7.50;;;6.03;;
5662;SDS011;2854;42.692;23.364;2022-12-29T02:39:04;8.53;;;5.70;;
5662;SDS011;2854;42.692;23.364;2022-12-29T02:43:59;6.30;;;5.50;;
5662;SDS011;2854;42.692;23.364;2022-12-29T02:49:01;15.57;;;7.17;;
5662;SDS011;2854;42.692;23.364;2022-12-29T02:51:34;6.77;;;5.80;;
5662;SDS011;2854;42.692;23.364;2022-12-29T02:54:00;15.97;;;4.90;;
5662;SDS011;2854;42.692;23.364;2022-12-29T02:56:44;11.47;;;5.80;;
5662;SDS011;2854;42.692;23.364;2022-12-29T02:59:10;10.53;;;5.70;;
5662;SDS011;2854;42.692;23.364;2022-12-29T03:08:55;5.90;;;4.50;;
5662;SDS011;2854;42.692;23.364;2022-12-29T03:11:24;7.13;;;5.87;;
5662;SDS011;2854;42.692;23.364;2022-12-29T03:17:00;10.60;;;5.43;;
5662;SDS011;2854;42.692;23.364;2022-12-29T03:19:37;7.07;;;5.83;;
5662;SDS011;2854;42.692;23.364;2022-12-29T03:22:10;6.23;;;5.43;;
5662;SDS011;2854;42.692;23.364;2022-12-29T03:24:52;8.50;;;6.47;;
5662;SDS011;2854;42.692;23.364;2022-12-29T03:27:23;9.47;;;6.60;;
5662;SDS011;2854;42.692;23.364;2022-12-29T03:29:51;8.40;;;7.47;;
5662;SDS011;2854;42.692;23.364;2022-12-29T03:32:24;9.03;;;6.73;;
5662;SDS011;2854;42.692;23.364;2022-12-29T03:34:50;9.47;;;6.70;;
5662;SDS011;2854;42.692;23.364;2022-12-29T03:37:18;9.70;;;6.20;;
5662;SDS011;2854;42.692;23.364;2022-12-29T03:39:45;10.00;;;7.50;;
5662;SDS011;2854;42.692;23.364;2022-12-29T03:42:12;9.70;;;6.13;;
5662;SDS011;2854;42.692;23.364;2022-12-29T03:44:40;9.60;;;6.47;;
5662;SDS011;2854;42.692;23.364;2022-12-29T03:47:06;12.27;;;7.80;;
5662;SDS011;2854;42.692;23.364;2022-12-29T03:49:31;7.23;;;6.53;;
5662;SDS011;2854;42.692;23.364;2022-12-29T03:51:57;10.43;;;6.17;;
5662;SDS011;2854;42.692;23.364;2022-12-29T03:54:22;9.40;;;6.00;;
5662;SDS011;2854;42.692;23.364;2022-12-29T03:56:47;14.13;;;6.80;;
5662;SDS011;2854;42.692;23.364;2022-12-29T03:59:12;14.13;;;8.20;;
5662;SDS011;2854;42.692;23.364;2022-12-29T04:01:38;10.10;;;7.80;;
5662;SDS011;2854;42.692;23.364;2022-12-29T04:04:03;12.17;;;7.60;;
5662;SDS011;2854;42.692;23.364;2022-12-29T04:06:28;15.60;;;7.17;;
5662;SDS011;2854;42.692;23.364;2022-12-29T04:08:54;11.87;;;7.20;;
5662;SDS011;2854;42.692;23.364;2022-12-29T04:11:19;8.93;;;6.37;;
5662;SDS011;2854;42.692;23.364;2022-12-29T04:13:44;10.60;;;6.67;;
5662;SDS011;2854;42.692;23.364;2022-12-29T04:16:10;8.43;;;6.33;;
5662;SDS011;2854;42.692;23.364;2022-12-29T04:18:35;9.80;;;5.87;;
5662;SDS011;2854;42.692;23.364;2022-12-29T04:21:00;8.43;;;5.73;;
5662;SDS011;2854;42.692;23.364;2022-12-29T04:23:29;8.87;;;5.93;;
5662;SDS011;2854;42.692;23.364;2022-12-29T04:25:55;13.23;;;7.37;;
5662;SDS011;2854;42.692;23.364;2022-12-29T04:28:20;14.00;;;8.20;;
5662;SDS011;2854;42.692;23.364;2022-12-29T04:30:45;14.10;;;6.57;;
5662;SDS011;2854;42.692;23.364;2022-12-29T04:33:11;9.13;;;6.10;;
5662;SDS011;2854;42.692;23.364;2022-12-29T04:35:36;9.63;;;6.10;;
5662;SDS011;2854;42.692;23.364;2022-12-29T04:38:02;10.80;;;7.07;;
5662;SDS011;2854;42.692;23.364;2022-12-29T04:40:27;11.60;;;6.77;;
5662;SDS011;2854;42.692;23.364;2022-12-29T04:42:53;10.37;;;7.13;;
5662;SDS011;2854;42.692;23.364;2022-12-29T04:45:18;7.70;;;5.80;;
5662;SDS011;2854;42.692;23.364;2022-12-29T04:47:43;8.60;;;6.10;;
5662;SDS011;2854;42.692;23.364;2022-12-29T04:50:09;9.30;;;6.40;;
5662;SDS011;2854;42.692;23.364;2022-12-29T04:52:34;7.90;;;5.90;;
5662;SDS011;2854;42.692;23.364;2022-12-29T04:54:59;11.33;;;6.47;;
5662;SDS011;2854;42.692;23.364;2022-12-29T04:57:25;16.23;;;7.23;;
5662;SDS011;2854;42.692;23.364;2022-12-29T04:59:50;15.73;;;7.03;;
5662;SDS011;2854;42.692;23.364;2022-12-29T05:02:15;11.30;;;5.80;;
5662;SDS011;2854;42.692;23.364;2022-12-29T05:04:41;6.20;;;5.60;;
5662;SDS011;2854;42.692;23.364;2022-12-29T05:07:07;10.33;;;4.83;;
5662;SDS011;2854;42.692;23.364;2022-12-29T05:09:32;10.70;;;6.43;;
5662;SDS011;2854;42.692;23.364;2022-12-29T05:11:57;5.97;;;4.80;;
5662;SDS011;2854;42.692;23.364;2022-12-29T05:14:22;6.30;;;5.27;;
5662;SDS011;2854;42.692;23.364;2022-12-29T05:16:48;11.67;;;5.77;;
5662;SDS011;2854;42.692;23.364;2022-12-29T05:19:13;13.93;;;7.60;;
5662;SDS011;2854;42.692;23.364;2022-12-29T05:21:38;9.73;;;5.13;;
5662;SDS011;2854;42.692;23.364;2022-12-29T05:24:04;6.50;;;4.97;;
5662;SDS011;2854;42.692;23.364;2022-12-29T05:26:29;8.47;;;5.03;;
5662;SDS011;2854;42.692;23.364;2022-12-29T05:28:54;5.37;;;4.30;;
5662;SDS011;2854;42.692;23.364;2022-12-29T05:31:19;5.50;;;4.43;;
5662;SDS011;2854;42.692;23.364;2022-12-29T05:33:45;11.70;;;5.40;;
5662;SDS011;2854;42.692;23.364;2022-12-29T05:36:10;7.87;;;5.60;;
5662;SDS011;2854;42.692;23.364;2022-12-29T05:38:35;11.23;;;6.53;;
5662;SDS011;2854;42.692;23.364;2022-12-29T05:41:01;7.97;;;5.40;;
5662;SDS011;2854;42.692;23.364;2022-12-29T05:43:26;6.67;;;5.80;;
5662;SDS011;2854;42.692;23.364;2022-12-29T05:45:51;9.90;;;6.50;;
5662;SDS011;2854;42.692;23.364;2022-12-29T05:48:17;12.60;;;8.17;;
5662;SDS011;2854;42.692;23.364;2022-12-29T05:50:42;11.30;;;7.30;;
5662;SDS011;2854;42.692;23.364;2022-12-29T05:53:07;11.67;;;8.03;;
5662;SDS011;2854;42.692;23.364;2022-12-29T05:55:33;15.80;;;6.90;;
5662;SDS011;2854;42.692;23.364;2022-12-29T05:57:58;17.13;;;8.30;;
5662;SDS011;2854;42.692;23.364;2022-12-29T06:00:24;18.40;;;8.70;;
5662;SDS011;2854;42.692;23.364;2022-12-29T06:02:49;17.23;;;8.63;;
5662;SDS011;2854;42.692;23.364;2022-12-29T06:05:14;8.60;;;5.93;;
5662;SDS011;2854;42.692;23.364;2022-12-29T06:07:39;10.70;;;7.17;;
5662;SDS011;2854;42.692;23.364;2022-12-29T06:10:05;14.33;;;8.90;;
5662;SDS011;2854;42.692;23.364;2022-12-29T06:12:30;11.43;;;7.10;;
5662;SDS011;2854;42.692;23.364;2022-12-29T06:14:56;15.83;;;7.33;;
5662;SDS011;2854;42.692;23.364;2022-12-29T06:17:21;8.73;;;7.10;;
5662;SDS011;2854;42.692;23.364;2022-12-29T06:19:46;10.00;;;7.60;;
5662;SDS011;2854;42.692;23.364;2022-12-29T06:22:11;12.90;;;7.60;;
5662;SDS011;2854;42.692;23.364;2022-12-29T06:24:37;8.10;;;7.30;;
5662;SDS011;2854;42.692;23.364;2022-12-29T06:27:02;10.77;;;7.17;;
5662;SDS011;2854;42.692;23.364;2022-12-29T06:29:28;13.63;;;7.30;;
5662;SDS011;2854;42.692;23.364;2022-12-29T06:31:53;11.33;;;7.87;;
5662;SDS011;2854;42.692;23.364;2022-12-29T06:34:22;17.90;;;7.23;;
5662;SDS011;2854;42.692;23.364;2022-12-29T06:36:48;10.27;;;7.13;;
5662;SDS011;2854;42.692;23.364;2022-12-29T06:39:13;9.57;;;7.27;;
5662;SDS011;2854;42.692;23.364;2022-12-29T06:41:38;14.00;;;8.40;;
5662;SDS011;2854;42.692;23.364;2022-12-29T06:44:03;19.53;;;8.00;;
5662;SDS011;2854;42.692;23.364;2022-12-29T06:46:29;19.33;;;10.60;;
5662;SDS011;2854;42.692;23.364;2022-12-29T06:48:54;21.27;;;10.07;;
5662;SDS011;2854;42.692;23.364;2022-12-29T06:51:19;15.57;;;8.47;;
5662;SDS011;2854;42.692;23.364;2022-12-29T06:53:44;13.93;;;7.57;;
5662;SDS011;2854;42.692;23.364;2022-12-29T06:56:10;14.23;;;7.90;;
5662;SDS011;2854;42.692;23.364;2022-12-29T06:58:35;12.23;;;7.20;;
5662;SDS011;2854;42.692;23.364;2022-12-29T07:01:00;16.07;;;9.53;;
5662;SDS011;2854;42.692;23.364;2022-12-29T07:03:26;13.00;;;9.07;;
5662;SDS011;2854;42.692;23.364;2022-12-29T07:05:51;9.50;;;8.50;;
5662;SDS011;2854;42.692;23.364;2022-12-29T07:08:16;17.33;;;9.00;;
5662;SDS011;2854;42.692;23.364;2022-12-29T07:10:42;24.87;;;12.00;;
5662;SDS011;2854;42.692;23.364;2022-12-29T07:13:07;18.27;;;9.17;;
5662;SDS011;2854;42.692;23.364;2022-12-29T07:15:32;24.10;;;11.20;;
5662;SDS011;2854;42.692;23.364;2022-12-29T07:17:58;20.63;;;10.50;;
5662;SDS011;2854;42.692;23.364;2022-12-29T07:20:23;13.70;;;9.77;;
5662;SDS011;2854;42.692;23.364;2022-12-29T07:22:48;18.53;;;9.60;;
5662;SDS011;2854;42.692;23.364;2022-12-29T07:25:13;16.40;;;8.23;;
5662;SDS011;2854;42.692;23.364;2022-12-29T07:27:39;14.50;;;7.73;;
5662;SDS011;2854;42.692;23.364;2022-12-29T07:30:04;11.43;;;7.70;;
5662;SDS011;2854;42.692;23.364;2022-12-29T07:32:32;17.07;;;8.90;;
5662;SDS011;2854;42.692;23.364;2022-12-29T07:34:57;17.67;;;8.20;;
5662;SDS011;2854;42.692;23.364;2022-12-29T07:37:22;13.93;;;7.33;;
5662;SDS011;2854;42.692;23.364;2022-12-29T07:39:48;12.10;;;7.60;;
5662;SDS011;2854;42.692;23.364;2022-12-29T07:42:13;12.37;;;7.17;;
5662;SDS011;2854;42.692;23.364;2022-12-29T07:44:38;19.77;;;8.97;;
5662;SDS011;2854;42.692;23.364;2022-12-29T07:47:03;14.83;;;8.70;;
5662;SDS011;2854;42.692;23.364;2022-12-29T07:49:29;17.27;;;9.03;;
5662;SDS011;2854;42.692;23.364;2022-12-29T07:51:54;15.70;;;9.73;;
5662;SDS011;2854;42.692;23.364;2022-12-29T07:54:19;22.90;;;9.30;;
5662;SDS011;2854;42.692;23.364;2022-12-29T07:56:45;12.77;;;8.80;;
5662;SDS011;2854;42.692;23.364;2022-12-29T07:59:10;13.33;;;7.53;;
5662;SDS011;2854;42.692;23.364;2022-12-29T08:01:37;13.53;;;7.80;;
5662;SDS011;2854;42.692;23.364;2022-12-29T08:04:02;14.70;;;8.77;;
5662;SDS011;2854;42.692;23.364;2022-12-29T08:06:27;12.97;;;8.27;;
5662;SDS011;2854;42.692;23.364;2022-12-29T08:08:54;13.70;;;7.93;;
5662;SDS011;2854;42.692;23.364;2022-12-29T08:11:21;15.67;;;9.17;;
5662;SDS011;2854;42.692;23.364;2022-12-29T08:13:46;9.40;;;8.00;;
5662;SDS011;2854;42.692;23.364;2022-12-29T08:16:11;21.63;;;8.83;;
5662;SDS011;2854;42.692;23.364;2022-12-29T08:18:36;18.63;;;8.93;;
5662;SDS011;2854;42.692;23.364;2022-12-29T08:21:02;16.10;;;8.53;;
5662;SDS011;2854;42.692;23.364;2022-12-29T08:23:28;15.80;;;8.70;;
5662;SDS011;2854;42.692;23.364;2022-12-29T08:25:56;12.80;;;7.53;;
5662;SDS011;2854;42.692;23.364;2022-12-29T08:28:22;14.03;;;8.53;;
5662;SDS011;2854;42.692;23.364;2022-12-29T08:30:47;14.23;;;8.77;;
5662;SDS011;2854;42.692;23.364;2022-12-29T08:33:12;19.30;;;8.87;;
5662;SDS011;2854;42.692;23.364;2022-12-29T08:35:37;21.43;;;9.40;;
5662;SDS011;2854;42.692;23.364;2022-12-29T08:38:02;13.30;;;8.27;;
5662;SDS011;2854;42.692;23.364;2022-12-29T08:40:28;11.20;;;6.80;;
5662;SDS011;2854;42.692;23.364;2022-12-29T08:42:53;11.80;;;7.47;;
5662;SDS011;2854;42.692;23.364;2022-12-29T08:45:18;15.40;;;8.97;;
5662;SDS011;2854;42.692;23.364;2022-12-29T08:47:43;18.37;;;10.97;;
5662;SDS011;2854;42.692;23.364;2022-12-29T08:50:09;18.37;;;8.40;;
5662;SDS011;2854;42.692;23.364;2022-12-29T08:52:34;13.57;;;7.57;;
5662;SDS011;2854;42.692;23.364;2022-12-29T08:54:59;13.77;;;8.63;;
5662;SDS011;2854;42.692;23.364;2022-12-29T08:57:24;18.57;;;9.03;;
5662;SDS011;2854;42.692;23.364;2022-12-29T08:59:50;13.00;;;8.17;;
5662;SDS011;2854;42.692;23.364;2022-12-29T09:02:15;16.07;;;7.80;;
5662;SDS011;2854;42.692;23.364;2022-12-29T09:04:40;16.80;;;7.97;;
5662;SDS011;2854;42.692;23.364;2022-12-29T09:07:05;15.73;;;7.90;;
5662;SDS011;2854;42.692;23.364;2022-12-29T09:09:31;12.23;;;7.33;;
5662;SDS011;2854;42.692;23.364;2022-12-29T09:11:56;16.23;;;8.77;;
5662;SDS011;2854;42.692;23.364;2022-12-29T09:14:22;17.50;;;8.00;;
5662;SDS011;2854;42.692;23.364;2022-12-29T09:16:47;14.80;;;8.57;;
5662;SDS011;2854;42.692;23.364;2022-12-29T09:19:34;10.00;;;6.67;;
5662;SDS011;2854;42.692;23.364;2022-12-29T09:21:59;19.30;;;8.00;;
5662;SDS011;2854;42.692;23.364;2022-12-29T09:24:24;10.20;;;7.33;;
5662;SDS011;2854;42.692;23.364;2022-12-29T09:26:50;11.73;;;7.73;;
5662;SDS011;2854;42.692;23.364;2022-12-29T09:29:15;13.67;;;7.27;;
5662;SDS011;2854;42.692;23.364;2022-12-29T09:31:40;12.30;;;7.90;;
5662;SDS011;2854;42.692;23.364;2022-12-29T09:34:06;11.57;;;7.30;;
5662;SDS011;2854;42.692;23.364;2022-12-29T09:36:31;12.27;;;7.80;;
5662;SDS011;2854;42.692;23.364;2022-12-29T09:38:56;14.17;;;8.10;;
5662;SDS011;2854;42.692;23.364;2022-12-29T09:41:26;14.87;;;7.77;;
5662;SDS011;2854;42.692;23.364;2022-12-29T09:46:24;12.57;;;8.07;;
5662;SDS011;2854;42.692;23.364;2022-12-29T09:48:54;16.37;;;8.20;;
5662;SDS011;2854;42.692;23.364;2022-12-29T09:51:22;12.27;;;6.90;;
5662;SDS011;2854;42.692;23.364;2022-12-29T09:54:35;18.93;;;9.00;;
5662;SDS011;2854;42.692;23.364;2022-12-29T09:56:34;9.77;;;7.50;;
5662;SDS011;2854;42.692;23.364;2022-12-29T09:59:04;17.00;;;7.60;;
5662;SDS011;2854;42.692;23.364;2022-12-29T10:01:36;12.77;;;6.87;;
5662;SDS011;2854;42.692;23.364;2022-12-29T10:04:03;9.80;;;6.20;;
5662;SDS011;2854;42.692;23.364;2022-12-29T10:06:36;12.97;;;8.53;;
5662;SDS011;2854;42.692;23.364;2022-12-29T10:24:39;10.77;;;6.97;;
5662;SDS011;2854;42.692;23.364;2022-12-29T10:27:09;11.37;;;7.57;;
5662;SDS011;2854;42.692;23.364;2022-12-29T10:29:37;15.57;;;7.80;;
5662;SDS011;2854;42.692;23.364;2022-12-29T10:32:05;8.77;;;6.50;;
5662;SDS011;2854;42.692;23.364;2022-12-29T10:34:34;10.97;;;6.30;;
5662;SDS011;2854;42.692;23.364;2022-12-29T10:37:05;10.70;;;7.43;;
5662;SDS011;2854;42.692;23.364;2022-12-29T10:39:42;18.07;;;8.20;;
5662;SDS011;2854;42.692;23.364;2022-12-29T10:44:34;8.97;;;6.33;;
5662;SDS011;2854;42.692;23.364;2022-12-29T10:47:00;13.93;;;8.37;;
5662;SDS011;2854;42.692;23.364;2022-12-29T10:49:29;12.17;;;7.43;;
5662;SDS011;2854;42.692;23.364;2022-12-29T10:51:57;15.40;;;8.20;;
5662;SDS011;2854;42.692;23.364;2022-12-29T10:54:30;19.83;;;7.53;;
5662;SDS011;2854;42.692;23.364;2022-12-29T10:57:01;9.80;;;7.00;;
5662;SDS011;2854;42.692;23.364;2022-12-29T10:59:33;14.00;;;7.53;;
5662;SDS011;2854;42.692;23.364;2022-12-29T11:04:35;14.70;;;7.27;;
5662;SDS011;2854;42.692;23.364;2022-12-29T11:07:04;13.83;;;8.20;;
5662;SDS011;2854;42.692;23.364;2022-12-29T11:09:32;12.63;;;7.53;;
5662;SDS011;2854;42.692;23.364;2022-12-29T11:11:58;11.10;;;7.53;;
5662;SDS011;2854;42.692;23.364;2022-12-29T11:14:28;17.80;;;7.93;;
5662;SDS011;2854;42.692;23.364;2022-12-29T11:16:57;12.83;;;7.20;;
5662;SDS011;2854;42.692;23.364;2022-12-29T11:19:24;16.77;;;8.00;;
5662;SDS011;2854;42.692;23.364;2022-12-29T11:21:50;12.53;;;8.43;;
5662;SDS011;2854;42.692;23.364;2022-12-29T11:24:20;11.77;;;6.97;;
5662;SDS011;2854;42.692;23.364;2022-12-29T11:26:46;10.53;;;6.87;;
5662;SDS011;2854;42.692;23.364;2022-12-29T11:32:05;17.83;;;7.93;;
5662;SDS011;2854;42.692;23.364;2022-12-29T11:34:32;15.43;;;7.70;;
5662;SDS011;2854;42.692;23.364;2022-12-29T11:37:00;17.20;;;8.63;;
5662;SDS011;2854;42.692;23.364;2022-12-29T11:39:30;17.87;;;9.27;;
5662;SDS011;2854;42.692;23.364;2022-12-29T11:41:57;21.40;;;7.70;;
5662;SDS011;2854;42.692;23.364;2022-12-29T11:44:23;16.97;;;9.80;;
5662;SDS011;2854;42.692;23.364;2022-12-29T11:46:50;21.73;;;8.73;;
5662;SDS011;2854;42.692;23.364;2022-12-29T11:49:23;17.37;;;8.87;;
5662;SDS011;2854;42.692;23.364;2022-12-29T11:51:49;18.80;;;8.50;;
5662;SDS011;2854;42.692;23.364;2022-12-29T11:54:19;12.37;;;7.70;;
5662;SDS011;2854;42.692;23.364;2022-12-29T11:56:46;18.57;;;9.33;;
5662;SDS011;2854;42.692;23.364;2022-12-29T12:01:59;15.63;;;8.63;;
5662;SDS011;2854;42.692;23.364;2022-12-29T12:04:26;11.30;;;8.33;;
5662;SDS011;2854;42.692;23.364;2022-12-29T12:09:25;12.80;;;7.77;;
5662;SDS011;2854;42.692;23.364;2022-12-29T12:11:52;8.50;;;6.47;;
5662;SDS011;2854;42.692;23.364;2022-12-29T12:14:28;13.60;;;7.50;;
5662;SDS011;2854;42.692;23.364;2022-12-29T12:16:57;10.07;;;6.20;;
5662;SDS011;2854;42.692;23.364;2022-12-29T12:21:58;14.87;;;7.10;;
5662;SDS011;2854;42.692;23.364;2022-12-29T12:29:19;10.40;;;7.47;;
5662;SDS011;2854;42.692;23.364;2022-12-29T12:31:53;12.77;;;7.77;;
5662;SDS011;2854;42.692;23.364;2022-12-29T12:34:22;10.90;;;6.33;;
5662;SDS011;2854;42.692;23.364;2022-12-29T12:36:59;14.93;;;8.30;;
5662;SDS011;2854;42.692;23.364;2022-12-29T12:44:31;9.63;;;7.10;;
5662;SDS011;2854;42.692;23.364;2022-12-29T12:54:57;12.37;;;7.90;;
5662;SDS011;2854;42.692;23.364;2022-12-29T13:00:17;16.03;;;9.90;;
5662;SDS011;2854;42.692;23.364;2022-12-29T13:07:44;16.67;;;8.43;;
5662;SDS011;2854;42.692;23.364;2022-12-29T13:18:19;12.60;;;8.23;;
5662;SDS011;2854;42.692;23.364;2022-12-29T13:20:56;13.00;;;7.87;;
5662;SDS011;2854;42.692;23.364;2022-12-29T13:27:06;12.77;;;7.40;;
5662;SDS011;2854;42.692;23.364;2022-12-29T13:31:35;17.27;;;8.50;;
5662;SDS011;2854;42.692;23.364;2022-12-29T13:34:05;12.63;;;8.53;;
5662;SDS011;2854;42.692;23.364;2022-12-29T13:36:40;11.90;;;8.23;;
5662;SDS011;2854;42.692;23.364;2022-12-29T13:41:34;14.97;;;7.93;;
5662;SDS011;2854;42.692;23.364;2022-12-29T13:44:01;15.10;;;9.60;;
5662;SDS011;2854;42.692;23.364;2022-12-29T13:46:34;16.57;;;10.13;;
5662;SDS011;2854;42.692;23.364;2022-12-29T13:49:11;9.03;;;7.77;;
5662;SDS011;2854;42.692;23.364;2022-12-29T13:51:40;17.00;;;9.07;;
5662;SDS011;2854;42.692;23.364;2022-12-29T13:56:42;15.47;;;9.13;;
5662;SDS011;2854;42.692;23.364;2022-12-29T14:01:39;19.53;;;10.13;;
5662;SDS011;2854;42.692;23.364;2022-12-29T14:04:29;22.73;;;7.77;;
5662;SDS011;2854;42.692;23.364;2022-12-29T14:07:01;19.03;;;8.87;;
5662;SDS011;2854;42.692;23.364;2022-12-29T14:09:46;23.20;;;10.10;;
5662;SDS011;2854;42.692;23.364;2022-12-29T14:14:49;10.33;;;7.83;;
5662;SDS011;2854;42.692;23.364;2022-12-29T14:17:16;12.53;;;7.63;;
5662;SDS011;2854;42.692;23.364;2022-12-29T14:19:43;19.27;;;9.90;;
5662;SDS011;2854;42.692;23.364;2022-12-29T14:22:09;12.43;;;7.73;;
5662;SDS011;2854;42.692;23.364;2022-12-29T14:34:46;15.03;;;7.97;;
5662;SDS011;2854;42.692;23.364;2022-12-29T14:39:49;11.27;;;7.77;;
5662;SDS011;2854;42.692;23.364;2022-12-29T14:42:27;15.37;;;7.67;;
5662;SDS011;2854;42.692;23.364;2022-12-29T14:45:00;14.20;;;7.90;;
5662;SDS011;2854;42.692;23.364;2022-12-29T14:49:54;10.93;;;7.53;;
5662;SDS011;2854;42.692;23.364;2022-12-29T14:52:23;9.50;;;7.07;;
5662;SDS011;2854;42.692;23.364;2022-12-29T14:55:02;15.80;;;9.00;;
5662;SDS011;2854;42.692;23.364;2022-12-29T14:57:47;17.17;;;10.00;;
5662;SDS011;2854;42.692;23.364;2022-12-29T15:02:39;24.10;;;11.80;;
5662;SDS011;2854;42.692;23.364;2022-12-29T15:05:05;30.40;;;13.80;;
5662;SDS011;2854;42.692;23.364;2022-12-29T15:07:36;23.03;;;11.57;;
5662;SDS011;2854;42.692;23.364;2022-12-29T15:10:05;29.77;;;12.00;;
5662;SDS011;2854;42.692;23.364;2022-12-29T15:12:37;20.80;;;11.17;;
5662;SDS011;2854;42.692;23.364;2022-12-29T15:15:23;21.27;;;10.90;;
5662;SDS011;2854;42.692;23.364;2022-12-29T15:17:49;28.63;;;12.93;;
5662;SDS011;2854;42.692;23.364;2022-12-29T15:20:20;23.93;;;11.33;;
5662;SDS011;2854;42.692;23.364;2022-12-29T15:22:47;30.37;;;12.53;;
5662;SDS011;2854;42.692;23.364;2022-12-29T15:25:14;29.13;;;13.20;;
5662;SDS011;2854;42.692;23.364;2022-12-29T15:27:40;28.10;;;16.00;;
5662;SDS011;2854;42.692;23.364;2022-12-29T15:30:11;31.50;;;14.87;;
5662;SDS011;2854;42.692;23.364;2022-12-29T15:32:40;35.77;;;16.53;;
5662;SDS011;2854;42.692;23.364;2022-12-29T15:35:22;47.60;;;18.00;;
5662;SDS011;2854;42.692;23.364;2022-12-29T15:37:47;32.97;;;17.60;;
5662;SDS011;2854;42.692;23.364;2022-12-29T15:40:32;32.40;;;17.17;;
5662;SDS011;2854;42.692;23.364;2022-12-29T15:45:30;21.63;;;12.17;;
5662;SDS011;2854;42.692;23.364;2022-12-29T15:47:56;31.97;;;15.20;;
5662;SDS011;2854;42.692;23.364;2022-12-29T15:52:48;32.03;;;15.33;;
5662;SDS011;2854;42.692;23.364;2022-12-29T15:58:19;25.80;;;13.03;;
5662;SDS011;2854;42.692;23.364;2022-12-29T16:00:49;28.70;;;13.20;;
5662;SDS011;2854;42.692;23.364;2022-12-29T16:03:14;22.83;;;12.70;;
5662;SDS011;2854;42.692;23.364;2022-12-29T16:05:40;31.53;;;12.93;;
5662;SDS011;2854;42.692;23.364;2022-12-29T16:10:49;31.10;;;15.00;;
5662;SDS011;2854;42.692;23.364;2022-12-29T16:15:54;28.63;;;15.23;;
5662;SDS011;2854;42.692;23.364;2022-12-29T16:18:23;51.40;;;21.70;;
5662;SDS011;2854;42.692;23.364;2022-12-29T16:20:49;111.93;;;46.27;;
5662;SDS011;2854;42.692;23.364;2022-12-29T16:23:20;116.93;;;51.70;;
5662;SDS011;2854;42.692;23.364;2022-12-29T16:25:47;136.30;;;54.80;;
5662;SDS011;2854;42.692;23.364;2022-12-29T16:28:34;104.97;;;44.73;;
5662;SDS011;2854;42.692;23.364;2022-12-29T16:31:05;82.83;;;41.67;;
5662;SDS011;2854;42.692;23.364;2022-12-29T16:33:44;65.47;;;31.90;;
5662;SDS011;2854;42.692;23.364;2022-12-29T16:36:30;73.53;;;28.10;;
5662;SDS011;2854;42.692;23.364;2022-12-29T16:41:39;61.43;;;31.17;;
5662;SDS011;2854;42.692;23.364;2022-12-29T16:44:38;73.53;;;33.90;;
5662;SDS011;2854;42.692;23.364;2022-12-29T16:46:57;120.47;;;52.47;;
5662;SDS011;2854;42.692;23.364;2022-12-29T16:49:25;181.83;;;81.50;;
5662;SDS011;2854;42.692;23.364;2022-12-29T16:51:51;179.37;;;76.87;;
5662;SDS011;2854;42.692;23.364;2022-12-29T16:54:23;156.83;;;71.30;;
5662;SDS011;2854;42.692;23.364;2022-12-29T16:56:48;130.13;;;59.20;;
5662;SDS011;2854;42.692;23.364;2022-12-29T16:59:27;115.53;;;57.10;;
5662;SDS011;2854;42.692;23.364;2022-12-29T17:01:54;85.30;;;43.00;;
5662;SDS011;2854;42.692;23.364;2022-12-29T17:04:20;85.33;;;42.97;;
5662;SDS011;2854;42.692;23.364;2022-12-29T17:06:45;106.43;;;47.17;;
5662;SDS011;2854;42.692;23.364;2022-12-29T17:09:24;123.50;;;48.27;;
5662;SDS011;2854;42.692;23.364;2022-12-29T17:11:50;128.50;;;52.17;;
5662;SDS011;2854;42.692;23.364;2022-12-29T17:16:50;98.90;;;46.40;;
5662;SDS011;2854;42.692;23.364;2022-12-29T17:19:28;140.27;;;51.73;;
5662;SDS011;2854;42.692;23.364;2022-12-29T17:21:54;147.23;;;54.43;;
5662;SDS011;2854;42.692;23.364;2022-12-29T17:24:19;141.17;;;50.67;;
5662;SDS011;2854;42.692;23.364;2022-12-29T17:26:46;120.37;;;52.77;;
5662;SDS011;2854;42.692;23.364;2022-12-29T17:29:15;91.67;;;40.00;;
5662;SDS011;2854;42.692;23.364;2022-12-29T17:31:43;94.73;;;41.63;;